TimeMST,TemperatureF,Dew PointF,Humidity,Sea Level PressureIn,VisibilityMPH,Wind Direction,Wind SpeedMPH,Gust SpeedMPH,PrecipitationIn,Events,Conditions,WindDirDegrees,DateUTC
12:53 AM,1.0,-4.0,79,30.41,10.0,West,6.9,-,N/A,,Clear,270,2013-01-14 07:53:00
1:53 AM,1.9,-4.0,76,30.41,10.0,West,8.1,-,N/A,,Clear,280,2013-01-14 08:53:00
2:53 AM,1.9,-4.0,76,30.42,10.0,West,3.5,-,N/A,,Clear,280,2013-01-14 09:53:00
3:53 AM,1.0,-5.1,75,30.41,10.0,WNW,4.6,-,N/A,,Mostly Cloudy,290,2013-01-14 10:53:00
4:53 AM,1.9,-2.9,80,30.42,10.0,West,3.5,-,N/A,,Overcast,260,2013-01-14 11:53:00
5:53 AM,1.9,-2.9,80,30.45,10.0,WSW,4.6,-,N/A,,Overcast,250,2013-01-14 12:53:00
6:53 AM,5.0,-0.9,76,30.47,10.0,WSW,3.5,-,N/A,,Overcast,250,2013-01-14 13:53:00
7:53 AM,7.0,1.9,80,30.49,10.0,West,3.5,-,N/A,,Overcast,270,2013-01-14 14:53:00
8:53 AM,12.0,6.1,77,30.48,10.0,WSW,4.6,-,N/A,,Overcast,240,2013-01-14 15:53:00
9:53 AM,12.9,8.1,81,30.47,9.0,WSW,3.5,-,N/A,,Overcast,250,2013-01-14 16:53:00
10:53 AM,17.1,10.9,77,30.44,7.0,WSW,6.9,-,0.00,,Overcast,240,2013-01-14 17:53:00
11:31 AM,17.6,10.4,73,30.22,10.0,SW,4.6,-,N/A,,Mostly Cloudy,220,2013-01-14 18:31:00
11:53 AM,19.0,10.0,68,30.38,10.0,SW,9.2,-,N/A,,Mostly Cloudy,220,2013-01-14 18:53:00
12:09 PM,19.4,10.4,68,30.19,9.0,SW,6.9,-,N/A,,Overcast,220,2013-01-14 19:09:00
12:53 PM,19.0,10.9,71,30.35,10.0,SSW,5.8,-,N/A,,Overcast,200,2013-01-14 19:53:00
1:53 PM,19.9,12.0,71,30.34,3.0,South,4.6,-,0.00,Snow,Light Snow,180,2013-01-14 20:53:00
2:09 PM,19.4,12.2,74,30.17,2.0,WSW,4.6,-,0.00,Snow,Light Snow,240,2013-01-14 21:09:00
2:20 PM,19.4,12.2,74,30.17,1.5,WSW,3.5,-,0.00,Snow,Light Snow,240,2013-01-14 21:20:00
2:27 PM,19.4,12.2,74,30.17,1.2,Calm,Calm,-,0.00,Snow,Light Snow,0,2013-01-14 21:27:00
2:53 PM,19.0,14.0,81,30.35,1.0,Calm,Calm,-,0.00,Snow,Light Snow,0,2013-01-14 21:53:00
3:14 PM,19.4,14.0,80,30.18,3.0,Calm,Calm,-,0.00,Snow,Light Snow,0,2013-01-14 22:14:00
3:35 PM,19.4,14.0,80,30.18,8.0,Calm,Calm,-,0.00,,Overcast,0,2013-01-14 22:35:00
3:53 PM,19.0,14.0,81,30.37,10.0,NW,3.5,-,0.00,,Overcast,320,2013-01-14 22:53:00
4:53 PM,18.0,12.9,81,30.38,10.0,NNW,4.6,-,N/A,,Overcast,330,2013-01-14 23:53:00
5:43 PM,17.6,14.0,86,30.20,2.5,Calm,Calm,-,0.00,Snow,Light Snow,0,2013-01-15 00:43:00
5:53 PM,18.0,14.0,84,30.39,2.0,NNW,3.5,-,0.00,Snow,Light Snow,340,2013-01-15 00:53:00
6:12 PM,17.6,14.0,86,30.21,1.5,Calm,Calm,-,0.00,Snow,Light Snow,0,2013-01-15 01:12:00
6:22 PM,17.6,14.0,86,30.21,0.8,Calm,Calm,-,0.00,Snow,Light Snow,0,2013-01-15 01:22:00
6:37 PM,17.6,15.8,93,30.21,1.0,Calm,Calm,-,0.00,Snow,Light Snow,0,2013-01-15 01:37:00
6:53 PM,17.1,15.1,92,30.38,1.2,Calm,Calm,-,0.01,Snow,Light Snow,0,2013-01-15 01:53:00
7:13 PM,17.6,15.8,93,30.21,1.5,Calm,Calm,-,0.00,Snow,Light Snow,0,2013-01-15 02:13:00
7:53 PM,17.1,15.1,92,30.37,1.5,Calm,Calm,-,0.01,Snow,Light Snow,0,2013-01-15 02:53:00
8:04 PM,15.8,14.0,93,30.19,2.5,Calm,Calm,-,0.00,Snow,Light Snow,0,2013-01-15 03:04:00
8:11 PM,15.8,14.0,93,30.19,3.0,Calm,Calm,-,0.00,,Overcast,0,2013-01-15 03:11:00
8:26 PM,14.0,12.2,93,30.19,5.0,Calm,Calm,-,0.00,,Overcast,0,2013-01-15 03:26:00
8:44 PM,14.0,10.4,86,30.18,4.0,Calm,Calm,-,0.00,Snow,Light Snow,0,2013-01-15 03:44:00
8:53 PM,12.9,9.0,84,30.35,3.0,Calm,Calm,-,0.00,Snow,Light Snow,0,2013-01-15 03:53:00
9:07 PM,12.2,10.4,92,30.18,2.5,SE,4.6,-,0.00,,Overcast,130,2013-01-15 04:07:00
9:14 PM,8.6,8.6,100,30.17,0.8,SE,6.9,-,0.00,,Overcast,130,2013-01-15 04:14:00
9:25 PM,8.6,6.8,92,30.17,2.5,ESE,8.1,-,0.00,,Overcast,120,2013-01-15 04:25:00
9:28 PM,8.6,6.8,92,30.17,6.0,ESE,5.8,-,0.00,,Overcast,120,2013-01-15 04:28:00
9:42 PM,10.4,6.8,85,30.18,8.0,WNW,5.8,-,0.00,,Overcast,300,2013-01-15 04:42:00
9:53 PM,12.0,10.0,92,30.35,10.0,WNW,3.5,-,0.00,,Overcast,300,2013-01-15 04:53:00
10:41 PM,8.6,6.8,92,30.18,1.5,Calm,Calm,-,N/A,,Partly Cloudy,0,2013-01-15 05:41:00
10:44 PM,8.6,6.8,92,30.18,0.8,Calm,Calm,-,N/A,,Mist,0,2013-01-15 05:44:00
10:53 PM,7.0,5.0,92,30.35,0.5,WSW,3.5,-,N/A,Fog,Light Freezing Fog,240,2013-01-15 05:53:00
10:55 PM,6.8,5.0,92,30.18,0.2,West,4.6,-,N/A,Fog,Light Freezing Fog,260,2013-01-15 05:55:00
10:59 PM,6.8,3.2,85,30.18,0.2,West,5.8,-,N/A,Fog,Light Freezing Fog,270,2013-01-15 05:59:00
11:53 PM,3.9,1.0,88,30.34,0.2,West,3.5,-,N/A,Fog,Light Freezing Fog,280,2013-01-15 06:53:00